sensor_id;sensor_type;location;lat;lon;timestamp;P1;durP1;ratioP1;P2;durP2;ratioP2
4244;SDS011;2136;48.502;9.194;2023-06-26T00:00:40;9.90;;;6.80;;
4244;SDS011;2136;48.502;9.194;2023-06-26T00:03:07;10.90;;;6.97;;
4244;SDS011;2136;48.502;9.194;2023-06-26T00:05:34;11.67;;;7.70;;
4244;SDS011;2136;48.502;9.194;2023-06-26T00:08:01;9.70;;;7.60;;
4244;SDS011;2136;48.502;9.194;2023-06-26T00:10:28;8.77;;;6.50;;
4244;SDS011;2136;48.502;9.194;2023-06-26T00:12:56;9.17;;;6.60;;
4244;SDS011;2136;48.502;9.194;2023-06-26T00:15:24;8.97;;;6.73;;
4244;SDS011;2136;48.502;9.194;2023-06-26T00:17:51;9.73;;;7.07;;
4244;SDS011;2136;48.502;9.194;2023-06-26T00:20:18;9.00;;;7.40;;
4244;SDS011;2136;48.502;9.194;2023-06-26T00:22:45;8.30;;;7.17;;
4244;SDS011;2136;48.502;9.194;2023-06-26T00:25:12;10.80;;;7.47;;
4244;SDS011;2136;48.502;9.194;2023-06-26T00:27:39;9.17;;;7.13;;
4244;SDS011;2136;48.502;9.194;2023-06-26T00:30:08;8.93;;;7.40;;
4244;SDS011;2136;48.502;9.194;2023-06-26T00:32:36;9.00;;;7.40;;
4244;SDS011;2136;48.502;9.194;2023-06-26T00:35:03;8.93;;;6.90;;
4244;SDS011;2136;48.502;9.194;2023-06-26T00:37:30;10.93;;;7.00;;
4244;SDS011;2136;48.502;9.194;2023-06-26T00:39:58;9.00;;;6.83;;
4244;SDS011;2136;48.502;9.194;2023-06-26T00:42:25;12.60;;;7.30;;
4244;SDS011;2136;48.502;9.194;2023-06-26T00:44:52;8.10;;;6.77;;
4244;SDS011;2136;48.502;9.194;2023-06-26T00:47:21;9.73;;;7.10;;
4244;SDS011;2136;48.502;9.194;2023-06-26T00:49:48;8.40;;;7.47;;
4244;SDS011;2136;48.502;9.194;2023-06-26T00:52:15;10.00;;;7.70;;
4244;SDS011;2136;48.502;9.194;2023-06-26T00:54:43;11.07;;;7.40;;
4244;SDS011;2136;48.502;9.194;2023-06-26T00:57:10;7.53;;;6.73;;
4244;SDS011;2136;48.502;9.194;2023-06-26T00:59:37;9.97;;;6.80;;
4244;SDS011;2136;48.502;9.194;2023-06-26T01:02:04;11.67;;;8.47;;
4244;SDS011;2136;48.502;9.194;2023-06-26T01:04:32;11.00;;;7.80;;
4244;SDS011;2136;48.502;9.194;2023-06-26T01:07:00;12.00;;;7.00;;
4244;SDS011;2136;48.502;9.194;2023-06-26T01:09:30;10.87;;;8.17;;
4244;SDS011;2136;48.502;9.194;2023-06-26T01:11:57;14.43;;;7.63;;
4244;SDS011;2136;48.502;9.194;2023-06-26T01:14:24;9.67;;;7.70;;
4244;SDS011;2136;48.502;9.194;2023-06-26T01:16:51;11.27;;;7.47;;
4244;SDS011;2136;48.502;9.194;2023-06-26T01:19:23;14.73;;;8.60;;
4244;SDS011;2136;48.502;9.194;2023-06-26T01:21:55;10.10;;;8.00;;
4244;SDS011;2136;48.502;9.194;2023-06-26T01:24:31;9.67;;;7.90;;
4244;SDS011;2136;48.502;9.194;2023-06-26T01:27:06;10.77;;;7.53;;
4244;SDS011;2136;48.502;9.194;2023-06-26T01:29:40;10.00;;;6.80;;
4244;SDS011;2136;48.502;9.194;2023-06-26T01:32:09;10.77;;;8.30;;
4244;SDS011;2136;48.502;9.194;2023-06-26T01:34:36;10.73;;;7.97;;
4244;SDS011;2136;48.502;9.194;2023-06-26T01:37:03;12.97;;;8.30;;
4244;SDS011;2136;48.502;9.194;2023-06-26T01:39:30;13.30;;;8.70;;
4244;SDS011;2136;48.502;9.194;2023-06-26T01:41:57;14.07;;;7.40;;
4244;SDS011;2136;48.502;9.194;2023-06-26T01:44:28;9.80;;;7.53;;
4244;SDS011;2136;48.502;9.194;2023-06-26T01:46:59;9.87;;;7.70;;
4244;SDS011;2136;48.502;9.194;2023-06-26T01:49:33;11.17;;;8.43;;
4244;SDS011;2136;48.502;9.194;2023-06-26T01:52:09;9.17;;;7.80;;
4244;SDS011;2136;48.502;9.194;2023-06-26T01:54:45;9.53;;;7.50;;
4244;SDS011;2136;48.502;9.194;2023-06-26T01:57:19;13.10;;;7.40;;
4244;SDS011;2136;48.502;9.194;2023-06-26T01:59:49;10.80;;;8.70;;
4244;SDS011;2136;48.502;9.194;2023-06-26T02:02:18;9.67;;;6.93;;
4244;SDS011;2136;48.502;9.194;2023-06-26T02:04:45;8.00;;;6.03;;
4244;SDS011;2136;48.502;9.194;2023-06-26T02:07:14;11.00;;;7.73;;
4244;SDS011;2136;48.502;9.194;2023-06-26T02:09:41;9.57;;;7.50;;
4244;SDS011;2136;48.502;9.194;2023-06-26T02:12:08;9.27;;;6.97;;
4244;SDS011;2136;48.502;9.194;2023-06-26T02:14:35;8.07;;;6.50;;
4244;SDS011;2136;48.502;9.194;2023-06-26T02:17:04;9.20;;;7.10;;
4244;SDS011;2136;48.502;9.194;2023-06-26T02:19:32;9.33;;;7.23;;
4244;SDS011;2136;48.502;9.194;2023-06-26T02:21:59;10.20;;;8.00;;
4244;SDS011;2136;48.502;9.194;2023-06-26T02:24:26;11.13;;;7.33;;
4244;SDS011;2136;48.502;9.194;2023-06-26T02:26:55;11.70;;;7.50;;
4244;SDS011;2136;48.502;9.194;2023-06-26T02:29:22;6.90;;;6.20;;
4244;SDS011;2136;48.502;9.194;2023-06-26T02:31:50;12.17;;;7.63;;
4244;SDS011;2136;48.502;9.194;2023-06-26T02:34:19;10.90;;;7.83;;
4244;SDS011;2136;48.502;9.194;2023-06-26T02:36:46;11.53;;;7.80;;
4244;SDS011;2136;48.502;9.194;2023-06-26T02:39:13;12.23;;;7.90;;
4244;SDS011;2136;48.502;9.194;2023-06-26T02:41:40;13.13;;;7.53;;
4244;SDS011;2136;48.502;9.194;2023-06-26T02:44:08;9.77;;;7.20;;
4244;SDS011;2136;48.502;9.194;2023-06-26T02:46:36;9.53;;;6.83;;
4244;SDS011;2136;48.502;9.194;2023-06-26T02:54:13;10.17;;;7.70;;
4244;SDS011;2136;48.502;9.194;2023-06-26T02:56:40;10.07;;;8.13;;
4244;SDS011;2136;48.502;9.194;2023-06-26T02:59:07;11.70;;;6.73;;
4244;SDS011;2136;48.502;9.194;2023-06-26T03:01:34;9.53;;;7.10;;
4244;SDS011;2136;48.502;9.194;2023-06-26T03:04:02;8.43;;;7.10;;
4244;SDS011;2136;48.502;9.194;2023-06-26T03:06:31;9.67;;;7.57;;
4244;SDS011;2136;48.502;9.194;2023-06-26T03:09:00;9.90;;;7.63;;
4244;SDS011;2136;48.502;9.194;2023-06-26T03:11:33;8.30;;;6.87;;
4244;SDS011;2136;48.502;9.194;2023-06-26T03:14:04;9.93;;;7.70;;
4244;SDS011;2136;48.502;9.194;2023-06-26T03:16:39;9.90;;;8.00;;
4244;SDS011;2136;48.502;9.194;2023-06-26T03:19:10;11.83;;;8.03;;
4244;SDS011;2136;48.502;9.194;2023-06-26T03:24:17;11.27;;;8.87;;
4244;SDS011;2136;48.502;9.194;2023-06-26T03:26:45;11.53;;;7.43;;
4244;SDS011;2136;48.502;9.194;2023-06-26T03:29:12;9.80;;;7.30;;
4244;SDS011;2136;48.502;9.194;2023-06-26T03:31:39;10.47;;;7.93;;
4244;SDS011;2136;48.502;9.194;2023-06-26T03:34:06;8.93;;;7.20;;
4244;SDS011;2136;48.502;9.194;2023-06-26T03:36:33;8.87;;;7.67;;
4244;SDS011;2136;48.502;9.194;2023-06-26T03:39:00;9.13;;;6.73;;
4244;SDS011;2136;48.502;9.194;2023-06-26T03:41:29;7.87;;;6.73;;
4244;SDS011;2136;48.502;9.194;2023-06-26T03:43:57;9.37;;;7.80;;
4244;SDS011;2136;48.502;9.194;2023-06-26T03:46:25;9.90;;;6.70;;
4244;SDS011;2136;48.502;9.194;2023-06-26T03:48:52;9.20;;;7.43;;
4244;SDS011;2136;48.502;9.194;2023-06-26T03:51:19;8.07;;;6.73;;
4244;SDS011;2136;48.502;9.194;2023-06-26T03:53:46;11.70;;;7.47;;
4244;SDS011;2136;48.502;9.194;2023-06-26T03:56:13;11.70;;;7.53;;
4244;SDS011;2136;48.502;9.194;2023-06-26T03:58:39;12.07;;;7.60;;
4244;SDS011;2136;48.502;9.194;2023-06-26T04:01:08;7.93;;;6.23;;
4244;SDS011;2136;48.502;9.194;2023-06-26T04:03:34;13.23;;;6.70;;
4244;SDS011;2136;48.502;9.194;2023-06-26T04:06:01;11.73;;;7.80;;
4244;SDS011;2136;48.502;9.194;2023-06-26T04:08:28;10.37;;;7.50;;
4244;SDS011;2136;48.502;9.194;2023-06-26T04:10:55;9.33;;;6.90;;
4244;SDS011;2136;48.502;9.194;2023-06-26T04:13:23;13.90;;;7.83;;
4244;SDS011;2136;48.502;9.194;2023-06-26T04:15:51;8.27;;;6.77;;
4244;SDS011;2136;48.502;9.194;2023-06-26T04:18:22;11.10;;;6.90;;
4244;SDS011;2136;48.502;9.194;2023-06-26T04:21:05;10.50;;;7.50;;
4244;SDS011;2136;48.502;9.194;2023-06-26T04:23:34;9.93;;;7.17;;
4244;SDS011;2136;48.502;9.194;2023-06-26T04:26:01;11.73;;;8.40;;
4244;SDS011;2136;48.502;9.194;2023-06-26T04:28:30;11.20;;;7.87;;
4244;SDS011;2136;48.502;9.194;2023-06-26T04:30:56;8.87;;;7.10;;
4244;SDS011;2136;48.502;9.194;2023-06-26T04:33:25;17.53;;;7.40;;
4244;SDS011;2136;48.502;9.194;2023-06-26T04:35:52;11.17;;;7.43;;
4244;SDS011;2136;48.502;9.194;2023-06-26T04:38:19;10.50;;;7.13;;
4244;SDS011;2136;48.502;9.194;2023-06-26T04:40:47;11.73;;;7.67;;
4244;SDS011;2136;48.502;9.194;2023-06-26T04:43:13;9.57;;;7.80;;
4244;SDS011;2136;48.502;9.194;2023-06-26T04:45:40;15.63;;;9.47;;
4244;SDS011;2136;48.502;9.194;2023-06-26T04:48:07;15.27;;;7.50;;
4244;SDS011;2136;48.502;9.194;2023-06-26T04:50:36;17.23;;;7.67;;
4244;SDS011;2136;48.502;9.194;2023-06-26T04:53:03;10.33;;;8.00;;
4244;SDS011;2136;48.502;9.194;2023-06-26T04:55:30;10.60;;;6.87;;
4244;SDS011;2136;48.502;9.194;2023-06-26T04:57:56;12.10;;;7.47;;
4244;SDS011;2136;48.502;9.194;2023-06-26T05:00:23;10.80;;;8.13;;
4244;SDS011;2136;48.502;9.194;2023-06-26T05:02:50;11.57;;;7.93;;
4244;SDS011;2136;48.502;9.194;2023-06-26T05:05:25;9.70;;;8.00;;
4244;SDS011;2136;48.502;9.194;2023-06-26T05:07:54;10.37;;;7.13;;
4244;SDS011;2136;48.502;9.194;2023-06-26T05:10:22;11.57;;;7.90;;
4244;SDS011;2136;48.502;9.194;2023-06-26T05:12:49;12.70;;;7.37;;
4244;SDS011;2136;48.502;9.194;2023-06-26T05:15:15;10.00;;;7.90;;
4244;SDS011;2136;48.502;9.194;2023-06-26T05:17:43;10.70;;;7.40;;
4244;SDS011;2136;48.502;9.194;2023-06-26T05:20:10;10.77;;;7.40;;
4244;SDS011;2136;48.502;9.194;2023-06-26T05:22:37;9.73;;;8.17;;
4244;SDS011;2136;48.502;9.194;2023-06-26T05:25:08;12.70;;;8.23;;
4244;SDS011;2136;48.502;9.194;2023-06-26T05:27:36;11.90;;;7.23;;
4244;SDS011;2136;48.502;9.194;2023-06-26T05:30:05;10.93;;;6.93;;
4244;SDS011;2136;48.502;9.194;2023-06-26T05:32:33;10.57;;;8.07;;
4244;SDS011;2136;48.502;9.194;2023-06-26T05:35:02;11.10;;;7.03;;
4244;SDS011;2136;48.502;9.194;2023-06-26T05:37:29;12.00;;;7.27;;
4244;SDS011;2136;48.502;9.194;2023-06-26T05:39:57;9.53;;;7.03;;
4244;SDS011;2136;48.502;9.194;2023-06-26T05:42:26;11.00;;;7.50;;
4244;SDS011;2136;48.502;9.194;2023-06-26T05:44:54;10.97;;;7.53;;
4244;SDS011;2136;48.502;9.194;2023-06-26T05:47:20;9.73;;;7.53;;
4244;SDS011;2136;48.502;9.194;2023-06-26T05:49:47;8.67;;;7.20;;
4244;SDS011;2136;48.502;9.194;2023-06-26T05:52:14;8.50;;;6.90;;
4244;SDS011;2136;48.502;9.194;2023-06-26T05:54:42;10.07;;;7.13;;
4244;SDS011;2136;48.502;9.194;2023-06-26T05:57:09;11.87;;;7.77;;
4244;SDS011;2136;48.502;9.194;2023-06-26T05:59:40;11.67;;;6.90;;
4244;SDS011;2136;48.502;9.194;2023-06-26T06:02:09;9.40;;;7.57;;
4244;SDS011;2136;48.502;9.194;2023-06-26T06:04:36;14.20;;;8.60;;
4244;SDS011;2136;48.502;9.194;2023-06-26T06:07:03;8.47;;;7.10;;
4244;SDS011;2136;48.502;9.194;2023-06-26T06:09:30;10.67;;;7.23;;
4244;SDS011;2136;48.502;9.194;2023-06-26T06:11:58;8.47;;;7.17;;
4244;SDS011;2136;48.502;9.194;2023-06-26T06:14:26;9.83;;;7.77;;
4244;SDS011;2136;48.502;9.194;2023-06-26T06:16:55;9.63;;;6.63;;
4244;SDS011;2136;48.502;9.194;2023-06-26T06:19:22;17.00;;;8.50;;
4244;SDS011;2136;48.502;9.194;2023-06-26T06:21:49;9.50;;;7.50;;
4244;SDS011;2136;48.502;9.194;2023-06-26T06:24:17;10.13;;;7.70;;
4244;SDS011;2136;48.502;9.194;2023-06-26T06:26:44;11.00;;;7.80;;
4244;SDS011;2136;48.502;9.194;2023-06-26T06:29:11;11.20;;;6.43;;
4244;SDS011;2136;48.502;9.194;2023-06-26T06:31:38;9.30;;;7.33;;
4244;SDS011;2136;48.502;9.194;2023-06-26T06:34:07;12.30;;;7.33;;
4244;SDS011;2136;48.502;9.194;2023-06-26T06:36:34;8.77;;;6.80;;
4244;SDS011;2136;48.502;9.194;2023-06-26T06:39:01;9.50;;;6.37;;
4244;SDS011;2136;48.502;9.194;2023-06-26T06:41:28;8.80;;;6.93;;
4244;SDS011;2136;48.502;9.194;2023-06-26T06:46:41;9.83;;;6.00;;
4244;SDS011;2136;48.502;9.194;2023-06-26T06:49:26;10.47;;;6.50;;
4244;SDS011;2136;48.502;9.194;2023-06-26T06:51:53;13.93;;;7.30;;
4244;SDS011;2136;48.502;9.194;2023-06-26T06:54:20;10.53;;;6.77;;
4244;SDS011;2136;48.502;9.194;2023-06-26T06:56:47;9.87;;;6.70;;
4244;SDS011;2136;48.502;9.194;2023-06-26T06:59:14;12.30;;;6.70;;
4244;SDS011;2136;48.502;9.194;2023-06-26T07:01:41;8.23;;;6.50;;
4244;SDS011;2136;48.502;9.194;2023-06-26T07:04:08;8.43;;;6.67;;
4244;SDS011;2136;48.502;9.194;2023-06-26T07:06:36;8.17;;;6.70;;
4244;SDS011;2136;48.502;9.194;2023-06-26T07:09:03;8.23;;;5.83;;
4244;SDS011;2136;48.502;9.194;2023-06-26T07:11:31;7.70;;;5.60;;
4244;SDS011;2136;48.502;9.194;2023-06-26T07:13:57;8.50;;;6.30;;
4244;SDS011;2136;48.502;9.194;2023-06-26T07:16:24;7.03;;;5.53;;
4244;SDS011;2136;48.502;9.194;2023-06-26T07:18:51;6.33;;;5.40;;
4244;SDS011;2136;48.502;9.194;2023-06-26T07:21:19;7.90;;;6.47;;
4244;SDS011;2136;48.502;9.194;2023-06-26T07:23:51;9.73;;;6.53;;
4244;SDS011;2136;48.502;9.194;2023-06-26T07:26:18;6.00;;;5.40;;
4244;SDS011;2136;48.502;9.194;2023-06-26T07:28:47;5.43;;;4.90;;
4244;SDS011;2136;48.502;9.194;2023-06-26T07:31:14;5.17;;;4.67;;
4244;SDS011;2136;48.502;9.194;2023-06-26T07:33:42;6.90;;;5.87;;
4244;SDS011;2136;48.502;9.194;2023-06-26T07:36:09;6.70;;;5.13;;
4244;SDS011;2136;48.502;9.194;2023-06-26T07:38:37;8.10;;;6.07;;
4244;SDS011;2136;48.502;9.194;2023-06-26T07:41:05;9.05;;;6.00;;
4244;SDS011;2136;48.502;9.194;2023-06-26T07:43:32;6.60;;;5.90;;
4244;SDS011;2136;48.502;9.194;2023-06-26T07:45:58;10.00;;;5.13;;
4244;SDS011;2136;48.502;9.194;2023-06-26T07:48:25;5.57;;;5.07;;
4244;SDS011;2136;48.502;9.194;2023-06-26T07:50:52;5.90;;;5.30;;
4244;SDS011;2136;48.502;9.194;2023-06-26T07:53:19;6.43;;;5.73;;
4244;SDS011;2136;48.502;9.194;2023-06-26T07:55:46;7.20;;;5.70;;
4244;SDS011;2136;48.502;9.194;2023-06-26T07:58:14;8.60;;;5.33;;
4244;SDS011;2136;48.502;9.194;2023-06-26T08:00:41;7.37;;;5.27;;
4244;SDS011;2136;48.502;9.194;2023-06-26T08:03:08;7.70;;;5.60;;
4244;SDS011;2136;48.502;9.194;2023-06-26T08:05:35;8.40;;;4.90;;
4244;SDS011;2136;48.502;9.194;2023-06-26T08:08:02;9.20;;;5.40;;
4244;SDS011;2136;48.502;9.194;2023-06-26T08:10:28;6.97;;;5.30;;
4244;SDS011;2136;48.502;9.194;2023-06-26T08:12:56;6.77;;;5.43;;
4244;SDS011;2136;48.502;9.194;2023-06-26T08:15:24;6.83;;;5.87;;
4244;SDS011;2136;48.502;9.194;2023-06-26T08:17:51;5.37;;;4.87;;
4244;SDS011;2136;48.502;9.194;2023-06-26T08:20:18;6.80;;;4.83;;
4244;SDS011;2136;48.502;9.194;2023-06-26T08:22:45;8.17;;;5.50;;
4244;SDS011;2136;48.502;9.194;2023-06-26T08:25:14;4.97;;;4.57;;
4244;SDS011;2136;48.502;9.194;2023-06-26T08:27:41;6.30;;;5.67;;
4244;SDS011;2136;48.502;9.194;2023-06-26T08:30:08;5.30;;;4.90;;
4244;SDS011;2136;48.502;9.194;2023-06-26T08:32:36;5.17;;;4.67;;
4244;SDS011;2136;48.502;9.194;2023-06-26T08:35:09;4.80;;;4.17;;
4244;SDS011;2136;48.502;9.194;2023-06-26T08:37:37;4.80;;;4.37;;
4244;SDS011;2136;48.502;9.194;2023-06-26T08:40:04;6.60;;;6.00;;
4244;SDS011;2136;48.502;9.194;2023-06-26T08:42:33;8.70;;;4.77;;
4244;SDS011;2136;48.502;9.194;2023-06-26T08:45:00;5.63;;;4.97;;
4244;SDS011;2136;48.502;9.194;2023-06-26T08:47:27;5.87;;;5.10;;
4244;SDS011;2136;48.502;9.194;2023-06-26T08:49:59;7.73;;;5.33;;
4244;SDS011;2136;48.502;9.194;2023-06-26T08:52:33;5.10;;;4.60;;
4244;SDS011;2136;48.502;9.194;2023-06-26T08:55:03;6.10;;;4.93;;
4244;SDS011;2136;48.502;9.194;2023-06-26T08:57:35;7.07;;;5.60;;
4244;SDS011;2136;48.502;9.194;2023-06-26T09:00:03;4.97;;;4.57;;
4244;SDS011;2136;48.502;9.194;2023-06-26T09:02:31;5.57;;;5.07;;
4244;SDS011;2136;48.502;9.194;2023-06-26T09:05:00;5.13;;;4.63;;
4244;SDS011;2136;48.502;9.194;2023-06-26T09:07:27;5.13;;;4.63;;
4244;SDS011;2136;48.502;9.194;2023-06-26T09:09:58;6.07;;;5.13;;
4244;SDS011;2136;48.502;9.194;2023-06-26T09:12:26;9.90;;;4.93;;
4244;SDS011;2136;48.502;9.194;2023-06-26T09:14:54;5.40;;;4.53;;
4244;SDS011;2136;48.502;9.194;2023-06-26T09:17:24;6.27;;;4.97;;
4244;SDS011;2136;48.502;9.194;2023-06-26T09:19:51;5.63;;;4.63;;
4244;SDS011;2136;48.502;9.194;2023-06-26T09:22:19;8.07;;;5.07;;
4244;SDS011;2136;48.502;9.194;2023-06-26T09:24:46;5.53;;;4.93;;
4244;SDS011;2136;48.502;9.194;2023-06-26T09:27:13;5.57;;;5.07;;
4244;SDS011;2136;48.502;9.194;2023-06-26T09:29:40;6.90;;;4.80;;
4244;SDS011;2136;48.502;9.194;2023-06-26T09:32:07;7.20;;;5.13;;
4244;SDS011;2136;48.502;9.194;2023-06-26T09:34:35;5.03;;;4.20;;
4244;SDS011;2136;48.502;9.194;2023-06-26T09:37:02;5.03;;;4.40;;
4244;SDS011;2136;48.502;9.194;2023-06-26T09:39:31;5.23;;;4.03;;
4244;SDS011;2136;48.502;9.194;2023-06-26T09:41:58;7.00;;;5.20;;
4244;SDS011;2136;48.502;9.194;2023-06-26T09:44:27;5.70;;;5.10;;
4244;SDS011;2136;48.502;9.194;2023-06-26T09:46:56;7.63;;;5.27;;
4244;SDS011;2136;48.502;9.194;2023-06-26T09:49:24;5.30;;;4.83;;
4244;SDS011;2136;48.502;9.194;2023-06-26T09:51:51;5.07;;;4.57;;
4244;SDS011;2136;48.502;9.194;2023-06-26T09:54:19;6.07;;;4.83;;
4244;SDS011;2136;48.502;9.194;2023-06-26T09:56:49;5.20;;;4.70;;
4244;SDS011;2136;48.502;9.194;2023-06-26T09:59:16;6.90;;;4.90;;
4244;SDS011;2136;48.502;9.194;2023-06-26T10:01:45;5.40;;;4.90;;
4244;SDS011;2136;48.502;9.194;2023-06-26T10:04:12;5.73;;;5.23;;
4244;SDS011;2136;48.502;9.194;2023-06-26T10:06:41;6.20;;;5.60;;
4244;SDS011;2136;48.502;9.194;2023-06-26T10:09:11;5.63;;;4.33;;
4244;SDS011;2136;48.502;9.194;2023-06-26T10:11:41;6.17;;;5.47;;
4244;SDS011;2136;48.502;9.194;2023-06-26T10:14:13;5.20;;;4.70;;
4244;SDS011;2136;48.502;9.194;2023-06-26T10:16:42;5.17;;;4.67;;
4244;SDS011;2136;48.502;9.194;2023-06-26T10:19:10;6.43;;;5.00;;
4244;SDS011;2136;48.502;9.194;2023-06-26T10:21:39;5.87;;;5.27;;
4244;SDS011;2136;48.502;9.194;2023-06-26T10:24:07;5.47;;;4.73;;
4244;SDS011;2136;48.502;9.194;2023-06-26T10:26:37;6.97;;;5.00;;
4244;SDS011;2136;48.502;9.194;2023-06-26T10:29:08;5.57;;;5.03;;
4244;SDS011;2136;48.502;9.194;2023-06-26T10:31:38;6.47;;;4.80;;
4244;SDS011;2136;48.502;9.194;2023-06-26T10:34:08;7.27;;;5.50;;
4244;SDS011;2136;48.502;9.194;2023-06-26T10:36:35;4.93;;;4.30;;
4244;SDS011;2136;48.502;9.194;2023-06-26T10:39:04;5.23;;;4.80;;
4244;SDS011;2136;48.502;9.194;2023-06-26T10:41:36;5.67;;;5.27;;
4244;SDS011;2136;48.502;9.194;2023-06-26T10:44:06;5.97;;;5.37;;
4244;SDS011;2136;48.502;9.194;2023-06-26T10:46:40;6.00;;;4.70;;
4244;SDS011;2136;48.502;9.194;2023-06-26T10:49:15;4.93;;;4.43;;
4244;SDS011;2136;48.502;9.194;2023-06-26T10:51:45;4.73;;;4.30;;
4244;SDS011;2136;48.502;9.194;2023-06-26T10:54:13;6.10;;;5.50;;
4244;SDS011;2136;48.502;9.194;2023-06-26T10:56:41;5.03;;;4.57;;
4244;SDS011;2136;48.502;9.194;2023-06-26T10:59:18;4.90;;;4.50;;
4244;SDS011;2136;48.502;9.194;2023-06-26T11:01:53;5.83;;;4.77;;
4244;SDS011;2136;48.502;9.194;2023-06-26T11:04:35;7.60;;;5.17;;
4244;SDS011;2136;48.502;9.194;2023-06-26T11:07:16;5.60;;;5.10;;
4244;SDS011;2136;48.502;9.194;2023-06-26T11:09:55;5.63;;;5.07;;
4244;SDS011;2136;48.502;9.194;2023-06-26T11:15:09;7.47;;;5.63;;
4244;SDS011;2136;48.502;9.194;2023-06-26T11:17:39;5.17;;;4.77;;
4244;SDS011;2136;48.502;9.194;2023-06-26T11:20:07;6.20;;;5.60;;
4244;SDS011;2136;48.502;9.194;2023-06-26T11:22:35;5.90;;;5.40;;
4244;SDS011;2136;48.502;9.194;2023-06-26T11:25:03;6.63;;;5.13;;
4244;SDS011;2136;48.502;9.194;2023-06-26T11:27:32;5.70;;;5.20;;
4244;SDS011;2136;48.502;9.194;2023-06-26T11:29:58;8.80;;;6.00;;
4244;SDS011;2136;48.502;9.194;2023-06-26T11:32:26;6.00;;;5.50;;
4244;SDS011;2136;48.502;9.194;2023-06-26T11:34:55;5.70;;;5.20;;
4244;SDS011;2136;48.502;9.194;2023-06-26T11:37:22;5.90;;;5.50;;
4244;SDS011;2136;48.502;9.194;2023-06-26T11:39:49;7.30;;;6.10;;
4244;SDS011;2136;48.502;9.194;2023-06-26T11:42:16;6.40;;;5.50;;
4244;SDS011;2136;48.502;9.194;2023-06-26T11:44:43;6.27;;;5.67;;
4244;SDS011;2136;48.502;9.194;2023-06-26T11:47:15;10.20;;;5.47;;
4244;SDS011;2136;48.502;9.194;2023-06-26T11:49:46;5.70;;;5.07;;
4244;SDS011;2136;48.502;9.194;2023-06-26T11:52:15;6.33;;;5.83;;
4244;SDS011;2136;48.502;9.194;2023-06-26T11:54:42;6.17;;;5.67;;
4244;SDS011;2136;48.502;9.194;2023-06-26T11:57:13;6.00;;;5.40;;
4244;SDS011;2136;48.502;9.194;2023-06-26T11:59:40;6.20;;;5.70;;
4244;SDS011;2136;48.502;9.194;2023-06-26T12:02:07;7.10;;;5.57;;
4244;SDS011;2136;48.502;9.194;2023-06-26T12:04:36;6.20;;;5.70;;
4244;SDS011;2136;48.502;9.194;2023-06-26T12:07:04;6.37;;;5.70;;
4244;SDS011;2136;48.502;9.194;2023-06-26T12:09:35;7.67;;;5.40;;
4244;SDS011;2136;48.502;9.194;2023-06-26T12:12:05;6.47;;;5.87;;
4244;SDS011;2136;48.502;9.194;2023-06-26T12:14:34;8.70;;;5.67;;
4244;SDS011;2136;48.502;9.194;2023-06-26T12:17:04;5.77;;;5.27;;
4244;SDS011;2136;48.502;9.194;2023-06-26T12:19:33;7.30;;;6.60;;
4244;SDS011;2136;48.502;9.194;2023-06-26T12:22:05;7.30;;;6.37;;
4244;SDS011;2136;48.502;9.194;2023-06-26T12:24:33;5.87;;;5.37;;
4244;SDS011;2136;48.502;9.194;2023-06-26T12:27:02;6.10;;;5.63;;
4244;SDS011;2136;48.502;9.194;2023-06-26T12:29:30;5.57;;;5.17;;
4244;SDS011;2136;48.502;9.194;2023-06-26T12:31:58;5.67;;;5.27;;
4244;SDS011;2136;48.502;9.194;2023-06-26T12:34:26;6.60;;;6.00;;
4244;SDS011;2136;48.502;9.194;2023-06-26T12:36:59;6.10;;;5.50;;
4244;SDS011;2136;48.502;9.194;2023-06-26T12:39:27;6.20;;;5.70;;
4244;SDS011;2136;48.502;9.194;2023-06-26T12:41:57;5.80;;;5.30;;
4244;SDS011;2136;48.502;9.194;2023-06-26T12:44:28;6.50;;;5.20;;
4244;SDS011;2136;48.502;9.194;2023-06-26T12:46:57;10.70;;;6.50;;
4244;SDS011;2136;48.502;9.194;2023-06-26T12:49:31;6.20;;;5.70;;
4244;SDS011;2136;48.502;9.194;2023-06-26T12:51:59;5.43;;;5.03;;
4244;SDS011;2136;48.502;9.194;2023-06-26T12:54:27;5.20;;;4.73;;
4244;SDS011;2136;48.502;9.194;2023-06-26T12:56:56;6.77;;;6.07;;
4244;SDS011;2136;48.502;9.194;2023-06-26T12:59:23;6.20;;;5.70;;
4244;SDS011;2136;48.502;9.194;2023-06-26T13:01:50;7.50;;;6.10;;
4244;SDS011;2136;48.502;9.194;2023-06-26T13:04:16;6.70;;;5.47;;
4244;SDS011;2136;48.502;9.194;2023-06-26T13:06:43;6.33;;;5.83;;
4244;SDS011;2136;48.502;9.194;2023-06-26T13:09:10;6.20;;;5.67;;
4244;SDS011;2136;48.502;9.194;2023-06-26T13:11:38;7.53;;;6.73;;
4244;SDS011;2136;48.502;9.194;2023-06-26T13:14:06;5.97;;;5.40;;
4244;SDS011;2136;48.502;9.194;2023-06-26T13:16:33;11.00;;;6.57;;
4244;SDS011;2136;48.502;9.194;2023-06-26T13:19:02;7.40;;;5.73;;
4244;SDS011;2136;48.502;9.194;2023-06-26T13:21:29;6.13;;;5.53;;
4244;SDS011;2136;48.502;9.194;2023-06-26T13:23:56;7.80;;;6.20;;
4244;SDS011;2136;48.502;9.194;2023-06-26T13:26:24;5.80;;;5.20;;
4244;SDS011;2136;48.502;9.194;2023-06-26T13:28:51;7.43;;;5.93;;
4244;SDS011;2136;48.502;9.194;2023-06-26T13:31:20;6.40;;;5.73;;
4244;SDS011;2136;48.502;9.194;2023-06-26T13:33:47;6.43;;;5.83;;
4244;SDS011;2136;48.502;9.194;2023-06-26T13:36:14;6.30;;;5.70;;
4244;SDS011;2136;48.502;9.194;2023-06-26T13:38:41;6.47;;;5.87;;
4244;SDS011;2136;48.502;9.194;2023-06-26T13:41:08;7.03;;;6.33;;
4244;SDS011;2136;48.502;9.194;2023-06-26T13:43:36;6.20;;;5.60;;
4244;SDS011;2136;48.502;9.194;2023-06-26T13:46:03;7.23;;;6.30;;
4244;SDS011;2136;48.502;9.194;2023-06-26T13:48:32;8.67;;;6.20;;
4244;SDS011;2136;48.502;9.194;2023-06-26T13:50:59;6.07;;;5.57;;
4244;SDS011;2136;48.502;9.194;2023-06-26T13:53:26;9.17;;;6.20;;
4244;SDS011;2136;48.502;9.194;2023-06-26T13:55:52;6.00;;;5.40;;
4244;SDS011;2136;48.502;9.194;2023-06-26T13:58:20;6.30;;;5.70;;
4244;SDS011;2136;48.502;9.194;2023-06-26T14:00:48;6.87;;;6.23;;
4244;SDS011;2136;48.502;9.194;2023-06-26T14:03:16;6.00;;;5.47;;
4244;SDS011;2136;48.502;9.194;2023-06-26T14:05:44;6.87;;;6.00;;
4244;SDS011;2136;48.502;9.194;2023-06-26T14:08:11;7.67;;;5.60;;
4244;SDS011;2136;48.502;9.194;2023-06-26T14:10:39;6.60;;;5.60;;
4244;SDS011;2136;48.502;9.194;2023-06-26T14:13:06;7.20;;;5.30;;
4244;SDS011;2136;48.502;9.194;2023-06-26T14:15:34;6.50;;;5.90;;
4244;SDS011;2136;48.502;9.194;2023-06-26T14:18:01;12.20;;;6.87;;
4244;SDS011;2136;48.502;9.194;2023-06-26T14:21:31;7.43;;;5.00;;
4244;SDS011;2136;48.502;9.194;2023-06-26T14:23:59;7.30;;;5.13;;
4244;SDS011;2136;48.502;9.194;2023-06-26T14:26:27;8.13;;;5.70;;
4244;SDS011;2136;48.502;9.194;2023-06-26T14:28:55;10.23;;;5.87;;
4244;SDS011;2136;48.502;9.194;2023-06-26T14:31:21;10.13;;;6.03;;
4244;SDS011;2136;48.502;9.194;2023-06-26T14:33:48;5.70;;;5.10;;
4244;SDS011;2136;48.502;9.194;2023-06-26T14:36:15;7.17;;;5.30;;
4244;SDS011;2136;48.502;9.194;2023-06-26T14:38:45;6.90;;;5.30;;
4244;SDS011;2136;48.502;9.194;2023-06-26T14:41:12;7.07;;;5.53;;
4244;SDS011;2136;48.502;9.194;2023-06-26T14:43:39;6.53;;;5.00;;
4244;SDS011;2136;48.502;9.194;2023-06-26T14:46:06;9.00;;;5.37;;
4244;SDS011;2136;48.502;9.194;2023-06-26T14:48:33;5.30;;;4.80;;
4244;SDS011;2136;48.502;9.194;2023-06-26T14:50:59;6.40;;;5.80;;
4244;SDS011;2136;48.502;9.194;2023-06-26T14:53:26;8.90;;;5.57;;
4244;SDS011;2136;48.502;9.194;2023-06-26T14:55:54;6.03;;;5.43;;
4244;SDS011;2136;48.502;9.194;2023-06-26T14:58:21;6.67;;;4.90;;
4244;SDS011;2136;48.502;9.194;2023-06-26T15:00:48;5.57;;;5.07;;
4244;SDS011;2136;48.502;9.194;2023-06-26T15:03:15;5.43;;;4.80;;
4244;SDS011;2136;48.502;9.194;2023-06-26T15:05:42;8.20;;;5.60;;
4244;SDS011;2136;48.502;9.194;2023-06-26T15:08:09;6.93;;;4.60;;
4244;SDS011;2136;48.502;9.194;2023-06-26T15:10:36;5.63;;;4.50;;
4244;SDS011;2136;48.502;9.194;2023-06-26T15:13:04;5.97;;;4.83;;
4244;SDS011;2136;48.502;9.194;2023-06-26T15:15:31;6.43;;;4.63;;
4244;SDS011;2136;48.502;9.194;2023-06-26T15:17:58;5.47;;;4.77;;
4244;SDS011;2136;48.502;9.194;2023-06-26T15:20:26;13.83;;;4.80;;
4244;SDS011;2136;48.502;9.194;2023-06-26T15:22:52;4.73;;;3.90;;
4244;SDS011;2136;48.502;9.194;2023-06-26T15:25:19;4.73;;;4.00;;
4244;SDS011;2136;48.502;9.194;2023-06-26T15:27:46;4.40;;;3.97;;
4244;SDS011;2136;48.502;9.194;2023-06-26T15:30:14;4.50;;;4.10;;
4244;SDS011;2136;48.502;9.194;2023-06-26T15:32:41;5.30;;;4.10;;